Detall de PIREP

Printer-friendly versionPDF version

[2012/01/11 08:22:00]
Flight IATA:CT2110
Pilot Number:041
Company ICAO:CAT
Aircraft Type:F50/A
PAX:35
Aircraft Registration:PAOB
Departing Airport: LEVC
Destination Airport: LEST
Alternate Airport:LEMD
Online: VATSIM
Route:CENTA A33 PRADO A33 CJN A33 HORTA A33 MAGIN A33 INDEG A33 DISKO A33 ZMR A33 BARKO A33 FORNO
Flight Level:F210
No Slew and time accel
No pause
Crash detect
Detect pilot in Cockpit between each 30 and 45 minutes
08:22 Zero fuel Weight: 35102 Lbs, Fuel Weight: 8582 Lbs
08:22 VATSIM:LEVC 110800Z VRB02KT 9999 FEW015 BKN018 06/03 Q1032 NOSIG
08:22 VATSIM:LEST 110800Z 00000KT 9999 VCFG NSC M03/M03 Q1030 TEMPO 0800 BCFG SCT001
08:22 VOICE CATALONIAN
08:26 Parking Brakes off
08:35 Take-off
08:35 Take off Weight: 43552 Lbs
08:35 Wind: 081º @ 001 Knots Heading: 295º
08:35 POS N39º 29´ 21´´ W000º 28´ 53´´
08:35 Flaps:2 at 118 Knots
08:35 Flaps:1 at 119 Knots
08:35 Flaps:0 at 124 Knots
08:39 Gear Up: 126 Knots
08:50 Wind:164º@009 Knots Heading: 297º Ground Speed: 221 Knots Altitude 14038 ft
08:57 TOC
08:57 Fuel Weight: 7652 Lb
09:05 Wind:144º@008 Knots Heading: 297º Ground Speed: 259 Knots Altitude 21525 ft
09:20 Wind:139º@009 Knots Heading: 295º Ground Speed: 262 Knots Altitude 21515 ft
09:35 Wind:206º@006 Knots Heading: 294º Ground Speed: 257 Knots Altitude 21505 ft
09:48 TOD
09:48 Fuel Weight: 6275 Lb
09:50 Wind:090º@007 Knots Heading: 305º Ground Speed: 296 Knots Altitude 19347 ft
10:05 Wind:094º@004 Knots Heading: 304º Ground Speed: 227 Knots Altitude 6620 ft
10:19 Flaps:1 at 169 Knots
10:19 Flaps:2 at 170 Knots
10:20 Wind:087º@001 Knots Heading: 343º Ground Speed: 175 Knots Altitude 4035 ft
10:24 Flaps:3 at 149 Knots
10:24 Gear Down: 139 Knots
10:24 Flaps:4 at 131 Knots
10:24 Flaps:5 at 115 Knots
10:27 TouchDown:Rate -183 ft/min Speed: 98 Knots
10:28 VATSIM:LEST 111000Z VRB02KT CAVOK 02/01 Q1031 NOSIG
10:28 Land
10:28 Wind:060º@001 Knots
10:28 Heading: 168º
10:28 Flight Duration: 01:53
10:28 Landing Weight: 40497 Lbs
10:28 POS N42º 54´ 09´´ W008º 25´ 01´´
10:31 Parking brakes on
10:31 Block to Block Duration: 02:05
10:31 Final Fuel: 5359 Lbls
10:31 Spent Fuel: 3223 Lbls
10:31 Flight Length: 436 NM
10:31 TOD Land Length: 144 NM

Exportar CSV

Powered by Drupal - Modified by Danger4k